首页
METAR-TAF:

METAR-TAF

机场 :

什切青, 波兰

纬度: 53-35N, 经度: 014-54E, 海拔: 1米

当前天气观测

该预报发布于15分钟前的03:00 UTC
风速5节,风向东南
温度 3°C
湿度 100%
气压 1005 hPa
能見度: 8000
少量云层高于2700英尺
阴天层高于4900英尺

METAR: EPSC 140300Z 14005KT 8000 FEW027 OVC049 03/03 Q1005

时间: 04:15 (03:15 UTC)

预报

该预报发布于3小时和45分钟前的23:30 UTC
预报有效从14日的 00点(UTC)到 14日的 24点(UTC)
风速5节,风向
能见度10公里或以上
1500米以下无云,无积雨云
几率 40%
从 14日的 00点(UTC)到 14日的 06点(UTC)
能見度: 3000
轻雾
几率 40% :
短暂存在
从 14日的 08点(UTC)到 14日的 24点(UTC)
多云层高于500英尺
多云层高于1200英尺
成为
从 14日的 14点(UTC)到 14日的 17点(UTC)
风速10节,风向

TAF: EPSC 132330Z 1400/1424 18005KT CAVOK PROB40 1400/1406 3000 BR PROB40 TEMPO 1408/1424 BKN005 BKN012 BECMG 1414/1417 09010KT

超过4000个机场的气象观测和天气预报(METAR&TAF报告)。

可查询的气象台以黄色和红色小点在地图上表示。

将鼠标移到小点上方,可查看气象台名称。

然后点击查看天气观测和预报。

如需切换地图:点击带黑十字的绿色按钮放大地图;点击带横线的绿色按钮缩小地图;或者点击绿色箭头查看邻近地区的地图。


METAR-TAF: